sensor_id;sensor_type;location;lat;lon;timestamp;pressure;altitude;pressure_sealevel;temperature;humidity
13767;BME280;47980;48.794;9.176;2023-12-20T00:02:19;98261.47;;;7.21;90.20
13767;BME280;47980;48.794;9.176;2023-12-20T00:04:50;98251.63;;;7.13;92.40
13767;BME280;47980;48.794;9.176;2023-12-20T00:07:22;98247.19;;;7.22;90.96
13767;BME280;47980;48.794;9.176;2023-12-20T00:09:56;98242.34;;;7.38;89.69
13767;BME280;47980;48.794;9.176;2023-12-20T00:12:27;98236.13;;;7.34;90.21
13767;BME280;47980;48.794;9.176;2023-12-20T00:14:59;98242.09;;;7.26;90.92
13767;BME280;47980;48.794;9.176;2023-12-20T00:17:32;98245.41;;;7.31;91.12
13767;BME280;47980;48.794;9.176;2023-12-20T00:20:04;98237.53;;;7.40;91.25
13767;BME280;47980;48.794;9.176;2023-12-20T00:22:36;98233.94;;;7.36;92.28
13767;BME280;47980;48.794;9.176;2023-12-20T00:25:08;98231.25;;;7.27;93.45
13767;BME280;47980;48.794;9.176;2023-12-20T00:27:39;98228.06;;;7.39;94.35
13767;BME280;47980;48.794;9.176;2023-12-20T00:30:11;98227.53;;;7.28;94.03
13767;BME280;47980;48.794;9.176;2023-12-20T00:32:44;98232.81;;;7.28;96.33
13767;BME280;47980;48.794;9.176;2023-12-20T00:35:17;98223.94;;;7.24;96.39
13767;BME280;47980;48.794;9.176;2023-12-20T00:37:48;98219.25;;;7.21;96.25
13767;BME280;47980;48.794;9.176;2023-12-20T00:40:20;98219.84;;;7.18;97.96
13767;BME280;47980;48.794;9.176;2023-12-20T00:42:52;98226.97;;;7.17;98.42
13767;BME280;47980;48.794;9.176;2023-12-20T00:45:23;98222.22;;;7.19;98.73
13767;BME280;47980;48.794;9.176;2023-12-20T00:47:56;98222.47;;;7.18;99.56
13767;BME280;47980;48.794;9.176;2023-12-20T00:50:29;98217.38;;;7.21;100.00
13767;BME280;47980;48.794;9.176;2023-12-20T00:53:00;98231.66;;;7.20;99.79
13767;BME280;47980;48.794;9.176;2023-12-20T00:55:32;98221.06;;;7.12;100.00
13767;BME280;47980;48.794;9.176;2023-12-20T00:58:04;98212.97;;;7.08;100.00
13767;BME280;47980;48.794;9.176;2023-12-20T01:00:35;98213.63;;;7.14;100.00
13767;BME280;47980;48.794;9.176;2023-12-20T01:03:08;98211.97;;;7.04;100.00
13767;BME280;47980;48.794;9.176;2023-12-20T01:05:40;98218.91;;;7.00;100.00
13767;BME280;47980;48.794;9.176;2023-12-20T01:08:11;98224.19;;;7.00;100.00
13767;BME280;47980;48.794;9.176;2023-12-20T01:10:43;98222.53;;;7.04;100.00
13767;BME280;47980;48.794;9.176;2023-12-20T01:13:17;98235.34;;;6.97;100.00
13767;BME280;47980;48.794;9.176;2023-12-20T01:15:48;98224.50;;;6.98;100.00
13767;BME280;47980;48.794;9.176;2023-12-20T01:18:21;98223.25;;;6.96;100.00
13767;BME280;47980;48.794;9.176;2023-12-20T01:20:52;98235.97;;;6.94;100.00
13767;BME280;47980;48.794;9.176;2023-12-20T01:23:24;98235.53;;;7.00;100.00
13767;BME280;47980;48.794;9.176;2023-12-20T01:25:55;98231.34;;;6.86;100.00
13767;BME280;47980;48.794;9.176;2023-12-20T01:28:27;98231.34;;;6.86;100.00
13767;BME280;47980;48.794;9.176;2023-12-20T01:30:58;98231.66;;;6.84;100.00
13767;BME280;47980;48.794;9.176;2023-12-20T01:33:31;98240.53;;;6.88;100.00
13767;BME280;47980;48.794;9.176;2023-12-20T01:36:03;98236.81;;;6.89;100.00
13767;BME280;47980;48.794;9.176;2023-12-20T01:38:34;98234.69;;;6.91;100.00
13767;BME280;47980;48.794;9.176;2023-12-20T01:41:05;98237.72;;;6.85;100.00
13767;BME280;47980;48.794;9.176;2023-12-20T01:43:37;98248.75;;;6.87;100.00
13767;BME280;47980;48.794;9.176;2023-12-20T01:46:08;98242.22;;;6.70;100.00
13767;BME280;47980;48.794;9.176;2023-12-20T01:48:41;98239.47;;;6.89;100.00
13767;BME280;47980;48.794;9.176;2023-12-20T01:51:13;98244.53;;;6.86;100.00
13767;BME280;47980;48.794;9.176;2023-12-20T01:53:45;98240.34;;;6.85;100.00
13767;BME280;47980;48.794;9.176;2023-12-20T01:56:18;98243.88;;;6.94;100.00
13767;BME280;47980;48.794;9.176;2023-12-20T01:58:49;98231.09;;;6.87;100.00
13767;BME280;47980;48.794;9.176;2023-12-20T02:01:21;98233.03;;;6.82;100.00
13767;BME280;47980;48.794;9.176;2023-12-20T02:03:54;98236.94;;;6.84;100.00
13767;BME280;47980;48.794;9.176;2023-12-20T02:06:29;98238.81;;;6.84;100.00
13767;BME280;47980;48.794;9.176;2023-12-20T02:09:04;98235.66;;;6.82;100.00
13767;BME280;47980;48.794;9.176;2023-12-20T02:11:35;98233.03;;;6.82;100.00
13767;BME280;47980;48.794;9.176;2023-12-20T02:14:07;98233.63;;;6.79;100.00
13767;BME280;47980;48.794;9.176;2023-12-20T02:16:39;98221.84;;;6.76;100.00
13767;BME280;47980;48.794;9.176;2023-12-20T02:19:13;98235.97;;;6.80;100.00
13767;BME280;47980;48.794;9.176;2023-12-20T02:21:47;98236.06;;;6.75;100.00
13767;BME280;47980;48.794;9.176;2023-12-20T02:24:18;98232.06;;;6.78;100.00
13767;BME280;47980;48.794;9.176;2023-12-20T02:26:50;98231.66;;;6.84;100.00
13767;BME280;47980;48.794;9.176;2023-12-20T02:29:21;98237.53;;;6.81;100.00
13767;BME280;47980;48.794;9.176;2023-12-20T02:31:52;98236.88;;;6.75;100.00
13767;BME280;47980;48.794;9.176;2023-12-20T02:34:24;98235.47;;;6.78;100.00
13767;BME280;47980;48.794;9.176;2023-12-20T02:36:57;98232.25;;;6.81;100.00
13767;BME280;47980;48.794;9.176;2023-12-20T02:39:28;98239.09;;;6.82;100.00
13767;BME280;47980;48.794;9.176;2023-12-20T02:42:00;98242.34;;;6.79;100.00
13767;BME280;47980;48.794;9.176;2023-12-20T02:44:31;98235.97;;;6.80;100.00
13767;BME280;47980;48.794;9.176;2023-12-20T02:47:03;98239.50;;;6.75;100.00
13767;BME280;47980;48.794;9.176;2023-12-20T02:49:35;98240.28;;;6.76;100.00
13767;BME280;47980;48.794;9.176;2023-12-20T02:52:08;98237.84;;;6.80;100.00
13767;BME280;47980;48.794;9.176;2023-12-20T02:54:39;98238.13;;;6.78;100.00
13767;BME280;47980;48.794;9.176;2023-12-20T02:57:11;98241.66;;;6.73;100.00
13767;BME280;47980;48.794;9.176;2023-12-20T02:59:43;98240.28;;;6.76;100.00
13767;BME280;47980;48.794;9.176;2023-12-20T03:02:16;98248.28;;;6.71;100.00
13767;BME280;47980;48.794;9.176;2023-12-20T03:04:48;98240.69;;;6.69;100.00
13767;BME280;47980;48.794;9.176;2023-12-20T03:07:23;98237.34;;;6.78;100.00
13767;BME280;47980;48.794;9.176;2023-12-20T03:09:55;98239.97;;;6.78;100.00
13767;BME280;47980;48.794;9.176;2023-12-20T03:12:26;98252.13;;;6.65;100.00
13767;BME280;47980;48.794;9.176;2023-12-20T03:14:58;98240.88;;;6.73;100.00
13767;BME280;47980;48.794;9.176;2023-12-20T03:17:29;98250.06;;;6.75;100.00
13767;BME280;47980;48.794;9.176;2023-12-20T03:20:01;98261.56;;;6.66;100.00
13767;BME280;47980;48.794;9.176;2023-12-20T03:22:34;98256.28;;;6.80;100.00
13767;BME280;47980;48.794;9.176;2023-12-20T03:25:06;98259.53;;;6.63;100.00
13767;BME280;47980;48.794;9.176;2023-12-20T03:27:37;98259.03;;;6.61;100.00
13767;BME280;47980;48.794;9.176;2023-12-20T03:30:10;98253.56;;;6.71;100.00
13767;BME280;47980;48.794;9.176;2023-12-20T03:32:41;98262.03;;;6.82;100.00
13767;BME280;47980;48.794;9.176;2023-12-20T03:35:13;98259.91;;;6.70;100.00
13767;BME280;47980;48.794;9.176;2023-12-20T03:37:46;98266.72;;;6.71;100.00
13767;BME280;47980;48.794;9.176;2023-12-20T03:40:17;98262.22;;;6.85;100.00
13767;BME280;47980;48.794;9.176;2023-12-20T03:42:49;98273.47;;;6.77;100.00
13767;BME280;47980;48.794;9.176;2023-12-20T03:45:20;98271.41;;;6.74;100.00
13767;BME280;47980;48.794;9.176;2023-12-20T03:47:51;98269.66;;;6.69;100.00
13767;BME280;47980;48.794;9.176;2023-12-20T03:50:25;98273.41;;;6.68;100.00
13767;BME280;47980;48.794;9.176;2023-12-20T03:52:58;98273.66;;;6.53;100.00
13767;BME280;47980;48.794;9.176;2023-12-20T03:55:30;98276.22;;;6.72;100.00
13767;BME280;47980;48.794;9.176;2023-12-20T03:58:01;98278.63;;;6.82;100.00
13767;BME280;47980;48.794;9.176;2023-12-20T04:00:32;98270.25;;;6.66;100.00
13767;BME280;47980;48.794;9.176;2023-12-20T04:03:04;98276.03;;;6.68;100.00
13767;BME280;47980;48.794;9.176;2023-12-20T04:05:36;98279.44;;;6.55;100.00
13767;BME280;47980;48.794;9.176;2023-12-20T04:08:09;98274.94;;;6.69;100.00
13767;BME280;47980;48.794;9.176;2023-12-20T04:10:40;98280.59;;;6.63;100.00
13767;BME280;47980;48.794;9.176;2023-12-20T04:13:12;98284.91;;;6.59;100.00
13767;BME280;47980;48.794;9.176;2023-12-20T04:15:43;98272.50;;;6.59;100.00
13767;BME280;47980;48.794;9.176;2023-12-20T04:18:15;98261.31;;;6.54;100.00
13767;BME280;47980;48.794;9.176;2023-12-20T04:20:46;98274.47;;;6.54;100.00
13767;BME280;47980;48.794;9.176;2023-12-20T04:23:20;98277.19;;;6.48;100.00
13767;BME280;47980;48.794;9.176;2023-12-20T04:25:52;98293.19;;;6.52;100.00
13767;BME280;47980;48.794;9.176;2023-12-20T04:28:24;98290.94;;;6.59;100.00
13767;BME280;47980;48.794;9.176;2023-12-20T04:30:55;98304.63;;;6.61;100.00
13767;BME280;47980;48.794;9.176;2023-12-20T04:33:27;98295.16;;;6.46;100.00
13767;BME280;47980;48.794;9.176;2023-12-20T04:35:58;98290.25;;;6.26;100.00
13767;BME280;47980;48.794;9.176;2023-12-20T04:38:31;98281.66;;;6.20;100.00
13767;BME280;47980;48.794;9.176;2023-12-20T04:41:03;98288.56;;;6.16;100.00
13767;BME280;47980;48.794;9.176;2023-12-20T04:43:34;98302.66;;;6.25;100.00
13767;BME280;47980;48.794;9.176;2023-12-20T04:46:06;98310.19;;;6.32;100.00
13767;BME280;47980;48.794;9.176;2023-12-20T04:48:37;98318.56;;;6.34;100.00
13767;BME280;47980;48.794;9.176;2023-12-20T04:51:11;98318.75;;;6.38;100.00
13767;BME280;47980;48.794;9.176;2023-12-20T04:53:46;98309.97;;;6.42;100.00
13767;BME280;47980;48.794;9.176;2023-12-20T04:56:17;98298.38;;;6.43;100.00
13767;BME280;47980;48.794;9.176;2023-12-20T04:58:49;98313.28;;;6.34;100.00
13767;BME280;47980;48.794;9.176;2023-12-20T05:01:20;98315.03;;;6.39;100.00
13767;BME280;47980;48.794;9.176;2023-12-20T05:03:52;98312.03;;;6.45;100.00
13767;BME280;47980;48.794;9.176;2023-12-20T05:06:23;98322.88;;;6.44;100.00
13767;BME280;47980;48.794;9.176;2023-12-20T05:08:56;98325.88;;;6.37;100.00
13767;BME280;47980;48.794;9.176;2023-12-20T05:11:27;98325.00;;;6.42;100.00
13767;BME280;47980;48.794;9.176;2023-12-20T05:13:59;98327.34;;;6.43;100.00
13767;BME280;47980;48.794;9.176;2023-12-20T05:16:30;98319.34;;;6.48;100.00
13767;BME280;47980;48.794;9.176;2023-12-20T05:19:02;98329.13;;;6.48;100.00
13767;BME280;47980;48.794;9.176;2023-12-20T05:21:36;98334.06;;;6.49;100.00
13767;BME280;47980;48.794;9.176;2023-12-20T05:24:09;98339.34;;;6.49;100.00
13767;BME280;47980;48.794;9.176;2023-12-20T05:26:41;98335.16;;;6.48;100.00
13767;BME280;47980;48.794;9.176;2023-12-20T05:29:12;98339.47;;;6.58;100.00
13767;BME280;47980;48.794;9.176;2023-12-20T05:31:44;98342.50;;;6.51;100.00
13767;BME280;47980;48.794;9.176;2023-12-20T05:34:15;98343.25;;;6.52;100.00
13767;BME280;47980;48.794;9.176;2023-12-20T05:36:46;98349.88;;;6.49;100.00
13767;BME280;47980;48.794;9.176;2023-12-20T05:39:19;98355.75;;;6.46;100.00
13767;BME280;47980;48.794;9.176;2023-12-20T05:41:51;98353.53;;;6.54;100.00
13767;BME280;47980;48.794;9.176;2023-12-20T05:44:22;98358.19;;;6.57;100.00
13767;BME280;47980;48.794;9.176;2023-12-20T05:46:54;98358.88;;;6.48;100.00
13767;BME280;47980;48.794;9.176;2023-12-20T05:49:28;98365.44;;;6.65;100.00
13767;BME280;47980;48.794;9.176;2023-12-20T05:52:00;98371.09;;;6.58;100.00
13767;BME280;47980;48.794;9.176;2023-12-20T05:54:32;98372.25;;;6.52;100.00
13767;BME280;47980;48.794;9.176;2023-12-20T05:57:04;98386.50;;;6.51;100.00
13767;BME280;47980;48.794;9.176;2023-12-20T05:59:36;98385.16;;;6.54;100.00
13767;BME280;47980;48.794;9.176;2023-12-20T06:02:07;98388.38;;;6.50;100.00
13767;BME280;47980;48.794;9.176;2023-12-20T06:04:41;98386.81;;;6.63;100.00
13767;BME280;47980;48.794;9.176;2023-12-20T06:07:13;98392.16;;;6.44;100.00
13767;BME280;47980;48.794;9.176;2023-12-20T06:09:46;98398.50;;;6.43;100.00
13767;BME280;47980;48.794;9.176;2023-12-20T06:12:18;98402.66;;;6.31;100.00
13767;BME280;47980;48.794;9.176;2023-12-20T06:14:49;98396.22;;;6.37;100.00
13767;BME280;47980;48.794;9.176;2023-12-20T06:17:21;98394.69;;;6.49;100.00
13767;BME280;47980;48.794;9.176;2023-12-20T06:19:52;98400.56;;;6.46;100.00
13767;BME280;47980;48.794;9.176;2023-12-20T06:22:24;98402.31;;;6.51;100.00
13767;BME280;47980;48.794;9.176;2023-12-20T06:24:57;98402.38;;;6.46;100.00
13767;BME280;47980;48.794;9.176;2023-12-20T06:27:28;98401.34;;;6.47;100.00
13767;BME280;47980;48.794;9.176;2023-12-20T06:30:00;98396.84;;;6.47;100.00
13767;BME280;47980;48.794;9.176;2023-12-20T06:32:32;98390.69;;;6.52;100.00
13767;BME280;47980;48.794;9.176;2023-12-20T06:35:05;98390.44;;;6.54;100.00
13767;BME280;47980;48.794;9.176;2023-12-20T06:37:37;98390.44;;;6.54;100.00
13767;BME280;47980;48.794;9.176;2023-12-20T06:40:14;98393.84;;;6.54;100.00
13767;BME280;47980;48.794;9.176;2023-12-20T06:42:46;98411.59;;;6.62;100.00
13767;BME280;47980;48.794;9.176;2023-12-20T06:45:17;98409.25;;;6.61;100.00
13767;BME280;47980;48.794;9.176;2023-12-20T06:47:49;98417.97;;;6.61;100.00
13767;BME280;47980;48.794;9.176;2023-12-20T06:50:20;98416.56;;;6.64;100.00
13767;BME280;47980;48.794;9.176;2023-12-20T06:52:52;98417.75;;;6.58;100.00
13767;BME280;47980;48.794;9.176;2023-12-20T06:55:25;98419.31;;;6.59;100.00
13767;BME280;47980;48.794;9.176;2023-12-20T06:57:56;98431.03;;;6.66;100.00
13767;BME280;47980;48.794;9.176;2023-12-20T07:00:27;98426.06;;;6.65;100.00
13767;BME280;47980;48.794;9.176;2023-12-20T07:02:59;98434.38;;;6.72;100.00
13767;BME280;47980;48.794;9.176;2023-12-20T07:05:31;98431.81;;;6.67;100.00
13767;BME280;47980;48.794;9.176;2023-12-20T07:08:04;98441.78;;;6.70;100.00
13767;BME280;47980;48.794;9.176;2023-12-20T07:10:36;98441.78;;;6.70;100.00
13767;BME280;47980;48.794;9.176;2023-12-20T07:13:08;98442.38;;;6.67;100.00
13767;BME280;47980;48.794;9.176;2023-12-20T07:15:40;98446.66;;;6.63;100.00
13767;BME280;47980;48.794;9.176;2023-12-20T07:18:11;98439.75;;;6.81;100.00
13767;BME280;47980;48.794;9.176;2023-12-20T07:20:43;98453.69;;;6.67;100.00
13767;BME280;47980;48.794;9.176;2023-12-20T07:23:14;98463.28;;;6.77;100.00
13767;BME280;47980;48.794;9.176;2023-12-20T07:25:47;98465.22;;;6.71;100.00
13767;BME280;47980;48.794;9.176;2023-12-20T07:28:19;98478.13;;;6.73;100.00
13767;BME280;47980;48.794;9.176;2023-12-20T07:30:50;98481.69;;;6.63;100.00
13767;BME280;47980;48.794;9.176;2023-12-20T07:33:22;98476.16;;;6.65;100.00
13767;BME280;47980;48.794;9.176;2023-12-20T07:35:53;98483.38;;;6.73;100.00
13767;BME280;47980;48.794;9.176;2023-12-20T07:38:25;98482.31;;;6.74;100.00
13767;BME280;47980;48.794;9.176;2023-12-20T07:40:58;98491.28;;;6.73;100.00
13767;BME280;47980;48.794;9.176;2023-12-20T07:43:32;98497.91;;;6.70;100.00
13767;BME280;47980;48.794;9.176;2023-12-20T07:46:05;98496.63;;;6.54;100.00
13767;BME280;47980;48.794;9.176;2023-12-20T07:48:37;98494.47;;;6.56;100.00
13767;BME280;47980;48.794;9.176;2023-12-20T07:51:09;98485.69;;;6.61;100.00
13767;BME280;47980;48.794;9.176;2023-12-20T07:53:40;98482.34;;;6.55;100.00
13767;BME280;47980;48.794;9.176;2023-12-20T07:56:16;98495.22;;;6.43;100.00
13767;BME280;47980;48.794;9.176;2023-12-20T07:58:48;98491.56;;;6.39;100.00
13767;BME280;47980;48.794;9.176;2023-12-20T08:01:20;98491.84;;;6.37;100.00
13767;BME280;47980;48.794;9.176;2023-12-20T08:03:52;98494.38;;;6.29;100.00
13767;BME280;47980;48.794;9.176;2023-12-20T08:06:23;98500.56;;;6.19;100.00
13767;BME280;47980;48.794;9.176;2023-12-20T08:08:54;98500.13;;;6.12;100.00
13767;BME280;47980;48.794;9.176;2023-12-20T08:11:28;98491.22;;;6.08;100.00
13767;BME280;47980;48.794;9.176;2023-12-20T08:13:59;98506.94;;;6.13;100.00
13767;BME280;47980;48.794;9.176;2023-12-20T08:16:31;98520.19;;;6.08;100.00
13767;BME280;47980;48.794;9.176;2023-12-20T08:19:02;98507.81;;;6.08;100.00
13767;BME280;47980;48.794;9.176;2023-12-20T08:21:34;98524.03;;;5.96;100.00
13767;BME280;47980;48.794;9.176;2023-12-20T08:24:06;98530.03;;;6.21;100.00
13767;BME280;47980;48.794;9.176;2023-12-20T08:26:39;98525.38;;;6.32;100.00
13767;BME280;47980;48.794;9.176;2023-12-20T08:29:12;98523.25;;;6.34;99.51
13767;BME280;47980;48.794;9.176;2023-12-20T08:31:44;98518.63;;;6.25;100.00
13767;BME280;47980;48.794;9.176;2023-12-20T08:34:16;98523.81;;;6.12;100.00
13767;BME280;47980;48.794;9.176;2023-12-20T08:36:48;98528.25;;;6.16;100.00
13767;BME280;47980;48.794;9.176;2023-12-20T08:39:19;98542.56;;;6.10;100.00
13767;BME280;47980;48.794;9.176;2023-12-20T08:41:52;98552.47;;;5.94;99.99
13767;BME280;47980;48.794;9.176;2023-12-20T08:44:24;98546.53;;;5.84;100.00
13767;BME280;47980;48.794;9.176;2023-12-20T08:46:55;98558.53;;;5.95;100.00
13767;BME280;47980;48.794;9.176;2023-12-20T08:49:27;98551.41;;;5.95;98.24
13767;BME280;47980;48.794;9.176;2023-12-20T08:51:59;98554.25;;;5.99;98.75
13767;BME280;47980;48.794;9.176;2023-12-20T08:54:30;98557.63;;;6.05;98.07
13767;BME280;47980;48.794;9.176;2023-12-20T08:57:04;98564.84;;;6.18;98.76
13767;BME280;47980;48.794;9.176;2023-12-20T08:59:37;98560.88;;;6.39;97.50
13767;BME280;47980;48.794;9.176;2023-12-20T09:02:08;98549.72;;;6.42;98.10
13767;BME280;47980;48.794;9.176;2023-12-20T09:04:39;98544.47;;;6.42;96.67
13767;BME280;47980;48.794;9.176;2023-12-20T09:07:21;98534.84;;;6.51;98.41
13767;BME280;47980;48.794;9.176;2023-12-20T09:09:53;98543.09;;;6.64;97.04
13767;BME280;47980;48.794;9.176;2023-12-20T09:12:25;98550.84;;;6.74;96.84
13767;BME280;47980;48.794;9.176;2023-12-20T09:14:57;98557.09;;;6.78;97.68
13767;BME280;47980;48.794;9.176;2023-12-20T09:17:29;98552.97;;;6.91;97.17
13767;BME280;47980;48.794;9.176;2023-12-20T09:20:00;98545.16;;;6.99;94.55
13767;BME280;47980;48.794;9.176;2023-12-20T09:22:32;98539.63;;;7.01;93.07
13767;BME280;47980;48.794;9.176;2023-12-20T09:25:05;98541.44;;;7.00;91.25
13767;BME280;47980;48.794;9.176;2023-12-20T09:27:38;98547.75;;;7.18;93.06
13767;BME280;47980;48.794;9.176;2023-12-20T09:30:09;98552.44;;;7.21;93.22
13767;BME280;47980;48.794;9.176;2023-12-20T09:32:41;98552.81;;;7.15;90.51
13767;BME280;47980;48.794;9.176;2023-12-20T09:35:13;98551.75;;;7.16;93.24
13767;BME280;47980;48.794;9.176;2023-12-20T09:37:45;98553.81;;;7.19;86.89
13767;BME280;47980;48.794;9.176;2023-12-20T09:40:18;98549.56;;;7.04;84.69
13767;BME280;47980;48.794;9.176;2023-12-20T09:42:56;98562.72;;;7.23;85.21
13767;BME280;47980;48.794;9.176;2023-12-20T09:45:28;98559.75;;;7.11;82.89
13767;BME280;47980;48.794;9.176;2023-12-20T09:48:03;98565.16;;;7.19;82.21
13767;BME280;47980;48.794;9.176;2023-12-20T09:50:35;98566.91;;;7.24;80.80
13767;BME280;47980;48.794;9.176;2023-12-20T09:53:08;98568.88;;;7.32;81.35
13767;BME280;47980;48.794;9.176;2023-12-20T09:55:41;98579.03;;;7.25;81.41
13767;BME280;47980;48.794;9.176;2023-12-20T09:58:14;98576.25;;;7.49;80.50
13767;BME280;47980;48.794;9.176;2023-12-20T10:00:46;98576.34;;;7.71;75.53
13767;BME280;47980;48.794;9.176;2023-12-20T10:03:21;98573.00;;;7.66;75.72
13767;BME280;47980;48.794;9.176;2023-12-20T10:05:56;98566.28;;;7.74;76.95
13767;BME280;47980;48.794;9.176;2023-12-20T10:08:28;98569.78;;;7.83;75.49
13767;BME280;47980;48.794;9.176;2023-12-20T10:11:02;98576.66;;;7.70;75.61
13767;BME280;47980;48.794;9.176;2023-12-20T10:13:39;98581.63;;;7.99;76.73
13767;BME280;47980;48.794;9.176;2023-12-20T10:16:10;98570.25;;;7.99;73.18
13767;BME280;47980;48.794;9.176;2023-12-20T10:18:42;98567.53;;;7.76;74.44
13767;BME280;47980;48.794;9.176;2023-12-20T10:21:13;98570.88;;;7.68;74.96
13767;BME280;47980;48.794;9.176;2023-12-20T10:23:45;98558.44;;;7.82;74.25
13767;BME280;47980;48.794;9.176;2023-12-20T10:26:20;98560.00;;;7.83;73.86
13767;BME280;47980;48.794;9.176;2023-12-20T10:28:55;98561.16;;;7.91;71.92
13767;BME280;47980;48.794;9.176;2023-12-20T10:31:28;98555.78;;;7.55;71.82
13767;BME280;47980;48.794;9.176;2023-12-20T10:34:01;98546.59;;;7.38;75.26
13767;BME280;47980;48.794;9.176;2023-12-20T10:36:33;98540.16;;;7.58;73.93
13767;BME280;47980;48.794;9.176;2023-12-20T10:39:08;98543.94;;;7.24;74.42
13767;BME280;47980;48.794;9.176;2023-12-20T10:41:42;98545.44;;;7.44;73.75
13767;BME280;47980;48.794;9.176;2023-12-20T10:44:15;98549.25;;;7.38;75.20
13767;BME280;47980;48.794;9.176;2023-12-20T10:46:47;98546.75;;;7.14;76.20
13767;BME280;47980;48.794;9.176;2023-12-20T10:49:21;98548.66;;;7.28;75.99
13767;BME280;47980;48.794;9.176;2023-12-20T10:51:54;98557.50;;;7.18;75.54
13767;BME280;47980;48.794;9.176;2023-12-20T10:54:27;98547.53;;;7.15;77.01
13767;BME280;47980;48.794;9.176;2023-12-20T10:56:59;98536.56;;;6.94;77.04
13767;BME280;47980;48.794;9.176;2023-12-20T10:59:33;98541.44;;;7.00;77.72
13767;BME280;47980;48.794;9.176;2023-12-20T11:02:07;98525.81;;;6.90;76.19
13767;BME280;47980;48.794;9.176;2023-12-20T11:04:44;98540.47;;;6.64;76.98
13767;BME280;47980;48.794;9.176;2023-12-20T11:07:22;98529.66;;;6.65;80.59
13767;BME280;47980;48.794;9.176;2023-12-20T11:09:58;98534.66;;;6.81;77.02
13767;BME280;47980;48.794;9.176;2023-12-20T11:12:36;98530.13;;;7.00;75.34
13767;BME280;47980;48.794;9.176;2023-12-20T11:15:10;98529.97;;;7.24;74.47
13767;BME280;47980;48.794;9.176;2023-12-20T11:17:44;98525.31;;;7.35;72.98
13767;BME280;47980;48.794;9.176;2023-12-20T11:20:16;98523.94;;;7.37;72.88
13767;BME280;47980;48.794;9.176;2023-12-20T11:22:52;98529.31;;;7.46;73.54
13767;BME280;47980;48.794;9.176;2023-12-20T11:25:24;98518.75;;;7.46;73.17
13767;BME280;47980;48.794;9.176;2023-12-20T11:28:11;98519.53;;;7.60;73.64
13767;BME280;47980;48.794;9.176;2023-12-20T11:30:51;98524.72;;;7.38;72.55
13767;BME280;47980;48.794;9.176;2023-12-20T11:33:23;98529.31;;;7.46;73.67
13767;BME280;47980;48.794;9.176;2023-12-20T11:35:55;98521.69;;;7.44;73.39
13767;BME280;47980;48.794;9.176;2023-12-20T11:38:27;98524.13;;;7.55;73.54
13767;BME280;47980;48.794;9.176;2023-12-20T11:40:59;98523.81;;;7.29;75.20
13767;BME280;47980;48.794;9.176;2023-12-20T11:43:35;98517.88;;;7.51;73.26
13767;BME280;47980;48.794;9.176;2023-12-20T11:46:09;98521.97;;;7.57;71.00
13767;BME280;47980;48.794;9.176;2023-12-20T11:48:40;98531.84;;;7.51;71.36
13767;BME280;47980;48.794;9.176;2023-12-20T11:51:14;98533.56;;;7.14;73.04
13767;BME280;47980;48.794;9.176;2023-12-20T11:53:51;98523.91;;;7.23;71.71
13767;BME280;47980;48.794;9.176;2023-12-20T11:56:23;98521.88;;;7.34;71.27
13767;BME280;47980;48.794;9.176;2023-12-20T11:58:55;98513.97;;;7.34;71.54
13767;BME280;47980;48.794;9.176;2023-12-20T12:01:28;98522.25;;;7.28;72.76
13767;BME280;47980;48.794;9.176;2023-12-20T12:04:03;98523.81;;;7.29;71.81
13767;BME280;47980;48.794;9.176;2023-12-20T12:06:34;98507.50;;;7.27;70.28
13767;BME280;47980;48.794;9.176;2023-12-20T12:09:06;98499.28;;;7.28;71.82
13767;BME280;47980;48.794;9.176;2023-12-20T12:11:37;98496.28;;;7.35;70.43
13767;BME280;47980;48.794;9.176;2023-12-20T12:14:09;98495.78;;;7.60;68.94
13767;BME280;47980;48.794;9.176;2023-12-20T12:16:42;98488.63;;;7.47;69.62
13767;BME280;47980;48.794;9.176;2023-12-20T12:19:20;98485.50;;;7.59;70.26
13767;BME280;47980;48.794;9.176;2023-12-20T12:22:04;98486.09;;;7.56;69.76
13767;BME280;47980;48.794;9.176;2023-12-20T12:24:36;98482.66;;;7.69;69.49
13767;BME280;47980;48.794;9.176;2023-12-20T12:27:08;98476.47;;;7.87;68.61
13767;BME280;47980;48.794;9.176;2023-12-20T12:29:40;98481.63;;;8.06;67.12
13767;BME280;47980;48.794;9.176;2023-12-20T12:32:15;98475.97;;;7.99;67.93
13767;BME280;47980;48.794;9.176;2023-12-20T12:34:46;98469.75;;;7.81;66.70
13767;BME280;47980;48.794;9.176;2023-12-20T12:37:18;98477.72;;;7.90;67.57
13767;BME280;47980;48.794;9.176;2023-12-20T12:39:49;98473.88;;;7.74;67.24
13767;BME280;47980;48.794;9.176;2023-12-20T12:42:21;98478.47;;;7.40;68.24
13767;BME280;47980;48.794;9.176;2023-12-20T12:44:56;98465.97;;;7.32;70.37
13767;BME280;47980;48.794;9.176;2023-12-20T12:47:28;98465.69;;;7.34;69.45
13767;BME280;47980;48.794;9.176;2023-12-20T12:50:00;98465.28;;;7.40;68.39
13767;BME280;47980;48.794;9.176;2023-12-20T12:52:32;98465.00;;;7.42;67.61
13767;BME280;47980;48.794;9.176;2023-12-20T12:55:04;98473.28;;;7.21;70.64
13767;BME280;47980;48.794;9.176;2023-12-20T12:57:36;98478.47;;;7.54;69.88
13767;BME280;47980;48.794;9.176;2023-12-20T13:00:08;98476.91;;;7.53;67.89
13767;BME280;47980;48.794;9.176;2023-12-20T13:02:42;98470.34;;;7.64;68.16
13767;BME280;47980;48.794;9.176;2023-12-20T13:05:14;98484.25;;;7.56;67.04
13767;BME280;47980;48.794;9.176;2023-12-20T13:07:45;98478.47;;;7.54;67.68
13767;BME280;47980;48.794;9.176;2023-12-20T13:10:18;98478.06;;;7.61;69.06
13767;BME280;47980;48.794;9.176;2023-12-20T13:12:49;98476.41;;;7.51;69.43
13767;BME280;47980;48.794;9.176;2023-12-20T13:15:21;98473.50;;;7.66;68.69
13767;BME280;47980;48.794;9.176;2023-12-20T13:17:53;98472.41;;;7.54;67.15
13767;BME280;47980;48.794;9.176;2023-12-20T13:20:25;98466.81;;;7.55;67.08
13767;BME280;47980;48.794;9.176;2023-12-20T13:22:56;98467.72;;;7.37;68.98
13767;BME280;47980;48.794;9.176;2023-12-20T13:25:28;98476.13;;;7.53;68.87
13767;BME280;47980;48.794;9.176;2023-12-20T13:27:59;98474.38;;;7.48;70.22
13767;BME280;47980;48.794;9.176;2023-12-20T13:30:31;98470.47;;;7.59;68.13
13767;BME280;47980;48.794;9.176;2023-12-20T13:33:04;98472.75;;;7.88;66.60